Data for 09/06/2014

Time Sea-Level Adjusted Pressure Absolute Pressure Temperature Relative Humidity Dew Point   
(mb) (inHg) (mb) (inHg) (C) (F) (%) (C) (F)
00:05 1026 30.3 855 25.25 8.8 47.9 51 -0.7 30.8
00:10 1026 30.3 855 25.25 8.7 47.6 53 -0.4 31.2
00:15 1026 30.3 855 25.25 8.2 46.8 55 -0.2 31.7
00:20 1026 30.3 855 25.25 8.4 47 53 -0.6 30.8
00:25 1026 30.3 855 25.25 8.5 47.4 52 -0.8 30.6
00:30 1026 30.3 855 25.25 9 48.1 52 -0.4 31.3
00:35 1026 30.3 855 25.25 8.7 47.7 49 -1.4 29.4
00:40 1026 30.3 855 25.25 9.1 48.3 48 -1.4 29.4
00:45 1026 30.3 855 25.25 9.1 48.4 48 -1.4 29.5
00:50 1026 30.3 855 25.25 9.6 49.2 45 -1.7 28.9
00:55 1026 30.3 855 25.25 9.6 49.2 49 -0.5 31.2
01:00 1026 30.3 855 25.25 8.8 47.8 52 -0.5 31
01:05 1026 30.3 855 25.25 8.1 46.5 55 -0.5 31.2
01:10 1026 30.3 855 25.25 7.7 45.8 55 -0.8 30.6
01:15 1026 30.3 855 25.25 7.6 45.6 57 -0.5 31.2
01:20 1026 30.3 855 25.25 7.2 45 59 -0.3 31.5
01:25 1026 30.3 855 25.25 6.9 44.5 59 -0.5 31.1
01:30 1026 30.3 855 25.25 6.9 44.5 57 -0.9 30.3
01:35 1026 30.3 855 25.25 7.5 45.4 53 -1.4 29.4
01:40 1026 30.3 855 25.25 8 46.5 50 -1.8 28.7
01:45 1026 30.3 855 25.25 8.3 46.9 50 -1.4 29.5
01:50 1026 30.3 855 25.25 8.1 46.6 50 -1.7 28.9
01:55 1026 30.3 855 25.25 8.2 46.8 50 -1.7 29
02:00 1026 30.3 855 25.25 8.2 46.7 52 -1.2 29.9
02:05 1026 30.3 855 25.25 7.7 45.9 54 -1.1 30.1
02:10 1026 30.3 855 25.25 7.4 45.4 55 -1 30.3
02:15 1026 30.3 855 25.25 7.1 44.7 53 -1.9 28.6
02:20 1026 30.3 855 25.25 7.8 46.1 53 -1.2 29.9
02:25 1026 30.3 855 25.25 7.1 44.7 56 -1.1 30.1
02:30 1026 30.3 855 25.25 6.9 44.4 52 -2.2 28
02:35 1026 30.3 855 25.25 7.9 46.2 52 -1.4 29.5
02:40 1026 30.3 855 25.25 7.2 45 56 -1.1 30.1
02:45 1026 30.3 855 25.25 7.2 45 53 -1.7 28.9
02:50 1026 30.3 855 25.25 7.7 45.9 51 -1.8 28.7
02:55 1026 30.3 855 25.25 7.8 46.1 51 -1.6 29.2
03:00 1026 30.3 855 25.25 7.7 45.8 51 -1.7 28.9
03:05 1026 30.3 855 25.25 7.6 45.7 50 -2.2 28
03:10 1026 30.3 855 25.25 8 46.5 49 -1.9 28.6
03:15 1026 30.3 855 25.25 8 46.3 50 -1.9 28.6
03:20 1026 30.3 855 25.25 7.8 46 50 -1.9 28.6
03:25 1026 30.3 855 25.25 7.9 46.3 50 -1.8 28.7
03:30 1026 30.3 855 25.25 7.9 46.2 50 -1.8 28.8
03:35 1026 30.3 855 25.25 7.8 46 50 -1.9 28.6
03:40 1026 30.3 855 25.25 7.3 45.2 52 -1.8 28.8
03:45 1026 30.3 855 25.25 7 44.5 55 -1.5 29.3
03:50 1026 30.3 855 25.25 6.4 43.5 58 -1.2 29.9
03:55 1026 30.3 855 25.25 6.2 43.1 55 -2.1 28.3
04:00 1026 30.3 855 25.25 6.7 44 54 -1.9 28.6
04:05 1026 30.3 855 25.25 6.9 44.5 53 -1.9 28.5
04:10 1026 30.3 855 25.25 7.3 45.2 52 -1.8 28.8
04:15 1026 30.3 855 25.25 7 44.5 54 -1.7 28.9
04:20 1026 30.3 855 25.25 6.8 44.2 55 -1.8 28.8
04:25 1026 30.3 855 25.25 6.7 44 56 -1.6 29.2
04:30 1026 30.3 855 25.25 6.5 43.7 57 -1.5 29.3
04:35 1026 30.3 855 25.25 6.6 43.9 55 -1.7 29
04:40 1026 30.3 855 25.25 6.8 44.3 54 -1.8 28.7
04:45 1026 30.3 855 25.25 6.9 44.4 55 -1.5 29.4
04:50 1026 30.3 855 25.25 6.1 42.9 60 -1.2 29.8
04:55 1026 30.3 855 25.25 6.3 43.3 55 -2 28.3
05:00 1026 30.3 855 25.25 6.4 43.6 57 -1.6 29.2
05:05 1026 30.3 855 25.25 6 42.8 58 -1.6 29.1
05:10 1026 30.3 855 25.25 6.1 43 55 -2.2 28.1
05:15 1026 30.3 855 25.25 6.5 43.8 55 -1.8 28.7
05:20 1026 30.3 855 25.25 6.4 43.6 55 -2 28.5
05:25 1026 30.3 855 25.25 6.9 44.4 53 -2.1 28.2
05:30 1026 30.3 855 25.25 7.3 45.2 51 -2 28.3
05:35 1026 30.3 855 25.25 7.4 45.4 51 -2.2 28.1
05:40 1026 30.3 855 25.25 7.5 45.6 50 -2.2 28
05:45 1026 30.3 855 25.25 7.8 46 52 -1.6 29.2
05:50 1026 30.3 855 25.25 6.9 44.5 54 -1.6 29.1
05:55 1026 30.3 855 25.25 6.5 43.6 53 -2.4 27.7
06:00 1026 30.3 855 25.25 7 44.6 53 -2 28.4
06:05 1026 30.3 855 25.25 6.6 43.9 54 -2.1 28.3
06:10 1026 30.3 855 25.25 6.6 44 53 -2.1 28.2
06:15 1026 30.3 855 25.25 6.9 44.3 52 -2.2 28.1
06:20 1026 30.3 855 25.25 7.4 45.4 50 -2.3 27.8
06:25 1026 30.3 855 25.25 7.4 45.3 51 -2.2 28.1
06:30 1026 30.3 855 25.25 7.5 45.5 50 -2.2 28
06:35 1026 30.3 855 25.25 7.5 45.5 51 -1.8 28.7
06:40 1026 30.3 855 25.25 7.3 45.2 53 -1.7 28.9
06:45 1026 30.3 855 25.25 7.2 44.9 54 -1.4 29.5
06:50 1026 30.3 855 25.25 7.3 45.1 54 -1.5 29.3
06:55 1026 30.3 855 25.25 7.3 45.1 55 -1.2 29.8
07:00 1026 30.3 855 25.25 7.2 45 54 -1.5 29.4
07:05 1026 30.3 856 25.28 7.6 45.7 52 -1.7 29
07:10 1026 30.3 856 25.28 7.9 46.2 53 -1.1 29.9
07:15 1026 30.3 856 25.28 8.1 46.6 52 -1 30.1
07:20 1026 30.3 856 25.28 8.4 47 51 -1.3 29.7
07:25 1026 30.3 856 25.28 8.9 48 50 -1 30.2
07:30 1026 30.3 856 25.28 9.5 49.1 48 -1 30.1
07:35 1026 30.3 856 25.28 9.8 49.7 47 -0.8 30.6
07:40 1026 30.3 856 25.28 10.1 50.2 47 -0.5 31
07:45 1026 30.3 856 25.28 10.5 50.9 46 -0.4 31.2
07:50 1026 30.3 856 25.28 11.2 52.1 44 -0.6 31
07:55 1026 30.3 856 25.28 12 53.7 42 -0.5 31.1
08:00 1026 30.3 856 25.28 12 53.5 43 -0.3 31.4
08:05 1026 30.3 856 25.28 11.9 53.5 43 -0.3 31.5
08:10 1026 30.3 856 25.28 12.4 54.2 41 -0.6 31
08:15 1026 30.3 856 25.28 12.6 54.7 41 -0.2 31.7
08:20 1026 30.3 856 25.28 12.7 54.8 40 -0.6 31
08:25 1026 30.3 856 25.28 13.6 56.4 37 -0.8 30.5
08:30 1026 30.3 856 25.28 14.2 57.5 37 -0.4 31.3
08:35 1026 30.3 856 25.28 14.3 57.8 36 -0.3 31.5
08:40 1026 30.3 856 25.28 14.2 57.6 37 -0.2 31.6
08:45 1026 30.3 856 25.28 14.4 57.9 36 -0.3 31.4
08:50 1026 30.3 855 25.25 14.7 58.4 34 -0.7 30.7
08:55 1026 30.3 855 25.25 15 59 34 -0.6 30.9
09:00 1026 30.3 856 25.28 15.3 59.6 34 -0.3 31.5
09:05 1026 30.3 855 25.25 15.1 59.1 36 0.1 32.1
09:10 1026 30.3 855 25.25 15.4 59.7 35 0.2 32.4
09:15 1026 30.3 855 25.25 15.5 60 35 0.2 32.4
09:20 1026 30.3 855 25.25 14.8 58.7 37 0.3 32.6
09:25 1026 30.3 855 25.25 15.1 59.1 36 0.1 32.2
09:30 1026 30.3 855 25.25 15.6 60 34 -0.1 31.8
09:35 1026 30.3 855 25.25 16 60.8 33 -0.1 31.8
09:40 1026 30.3 855 25.25 16.5 61.7 33 0.2 32.3
09:45 1026 30.3 855 25.25 16.2 61.1 35 0.7 33.3
09:50 1026 30.3 855 25.25 15.7 60.3 34 0 32.1
09:55 1026 30.3 855 25.25 15.8 60.4 34 0.2 32.3
10:00 1026 30.3 855 25.25 16.5 61.6 33 0.3 32.5
10:05 1026 30.3 855 25.25 15.6 60.1 34 -0 32
10:10 1026 30.3 855 25.25 16.2 61.2 32 -0.2 31.7
10:15 1026 30.3 855 25.25 16.7 62.1 33 0.5 32.9
10:20 1026 30.3 855 25.25 16.8 62.2 32 0.2 32.4
10:25 1026 30.3 855 25.25 17.2 63 31 0.2 32.4
10:30 1026 30.3 855 25.25 17.6 63.8 32 1 33.8
10:35 1026 30.3 855 25.25 17.9 64.2 30 0.2 32.3
10:40 1026 30.3 855 25.25 18.2 64.7 30 0.6 33.1
10:45 1026 30.3 855 25.25 18.7 65.6 30 0.8 33.4
10:50 1026 30.3 855 25.25 18.6 65.5 29 0.6 33
10:55 1026 30.3 855 25.25 18.5 65.3 29 0.4 32.7
11:00 1026 30.3 855 25.25 18.7 65.6 28 0.2 32.3
11:05 1026 30.3 855 25.25 18.9 65.9 30 1 33.8
11:10 1025 30.27 855 25.25 17.9 64.3 32 1 33.7
11:15 1025 30.27 855 25.25 18.5 65.3 31 1 33.8
11:20 1025 30.27 855 25.25 19.1 66.3 30 1.5 34.6
11:25 1025 30.27 855 25.25 18.7 65.7 31 1.2 34.2
11:30 1025 30.27 854 25.22 18.7 65.7 29 0.5 33
11:35 1025 30.27 854 25.22 19 66.1 30 1.1 34
11:40 1025 30.27 854 25.22 19.1 66.3 28 0.4 32.7
11:45 1025 30.27 854 25.22 19.6 67.2 27 0.1 32.1
11:50 1025 30.27 854 25.22 19.5 67 27 0.1 32.2
11:55 1025 30.27 854 25.22 19.8 67.6 27 0.3 32.6
12:00 1025 30.27 854 25.22 20.4 68.7 24 -0.4 31.2
12:05 1025 30.27 854 25.22 20.2 68.4 25 -0.5 31.1
12:10 1025 30.27 854 25.22 20 68.1 24 -0.9 30.5
12:15 1025 30.27 854 25.22 20.2 68.3 25 -0.6 31
12:20 1025 30.27 854 25.22 20.9 69.6 24 -0.3 31.5
12:25 1025 30.27 854 25.22 21.4 70.5 24 0.3 32.6
12:30 1025 30.27 854 25.22 21.3 70.3 24 0 32
12:35 1025 30.27 854 25.22 21.6 70.8 24 0.5 32.9
12:40 1024 30.24 854 25.22 21.9 71.4 22 -0.5 31.1
12:45 1024 30.24 854 25.22 21.9 71.3 23 0.1 32.3
12:50 1024 30.24 854 25.22 21.7 71.1 23 0 32.1
12:55 1024 30.24 854 25.22 21.8 71.3 22 -0.9 30.4
13:00 1024 30.24 854 25.22 22.2 71.9 22 -0.3 31.5
13:05 1024 30.24 853 25.19 22.7 72.9 23 0.5 33
13:10 1024 30.24 853 25.19 22 71.6 23 0.4 32.7
13:15 1024 30.24 853 25.19 21.9 71.4 23 -0.2 31.7
13:20 1024 30.24 853 25.19 22.5 72.5 21 -0.5 31.1
13:25 1024 30.24 853 25.19 23 73.3 20 -0.8 30.6
13:30 1024 30.24 853 25.19 23 73.4 19 -1.8 28.8
13:35 1024 30.24 853 25.19 23 73.5 20 -1.2 29.8
13:40 1024 30.24 853 25.19 23 73.3 20 -1.3 29.7
13:45 1024 30.24 853 25.19 23.4 74 19 -1.3 29.6
13:50 1024 30.24 853 25.19 23.4 74.1 16 -3.8 25.1
13:55 1024 30.24 853 25.19 23.4 74.1 17 -2.7 27.1
14:00 1024 30.24 853 25.19 23.6 74.4 18 -1.6 29.2
14:05 1024 30.24 853 25.19 23.5 74.2 16 -4 24.8
14:10 1024 30.24 853 25.19 23.5 74.2 17 -2.9 26.9
14:15 1024 30.24 853 25.19 23.9 75 17 -2.3 27.8
14:20 1023 30.21 853 25.19 23.8 74.8 18 -1.4 29.4
14:25 1023 30.21 853 25.19 23.8 74.9 17 -2.6 27.4
14:30 1023 30.21 853 25.19 23.6 74.5 18 -2.1 28.3
14:35 1023 30.21 852 25.16 23.5 74.3 16 -3.9 25
14:40 1023 30.21 852 25.16 24 75.1 15 -3.8 25.1
14:45 1023 30.21 852 25.16 24.2 75.6 15 -4.1 24.7
14:50 1023 30.21 852 25.16 23.1 73.5 16 -3.6 25.5
14:55 1023 30.21 852 25.16 22.5 72.5 17 -3.9 24.9
15:00 1023 30.21 852 25.16 23.5 74.4 15 -4.6 23.7
15:05 1023 30.21 852 25.16 23.3 73.9 18 -2.2 28
15:10 1023 30.21 852 25.16 23.1 73.7 16 -3.5 25.7
15:15 1023 30.21 852 25.16 23.5 74.3 15 -4.4 24.1
15:20 1023 30.21 852 25.16 23.6 74.5 17 -3 26.6
15:25 1023 30.21 852 25.16 24.2 75.6 15 -3.6 25.6
15:30 1023 30.21 852 25.16 24 75.2 16 -2.8 26.9
15:35 1023 30.21 852 25.16 23.7 74.6 17 -2.8 27
15:40 1023 30.21 852 25.16 23.7 74.6 17 -2.8 26.9
15:45 1023 30.21 852 25.16 24.1 75.4 15 -3.9 25
15:50 1022 30.18 852 25.16 24.1 75.4 15 -4.1 24.7
15:55 1022 30.18 852 25.16 24.3 75.8 14 -4.7 23.6
16:00 1022 30.18 852 25.16 24.5 76 15 -4 24.8
16:05 1022 30.18 852 25.16 24.5 76.2 15 -3.8 25.2
16:10 1022 30.18 852 25.16 24.2 75.5 15 -3.6 25.6
16:15 1022 30.18 852 25.16 23.3 74 15 -4.7 23.5
16:20 1022 30.18 851 25.13 23.5 74.2 15 -4.7 23.6
16:25 1022 30.18 851 25.13 23.5 74.2 16 -3.9 25
16:30 1022 30.18 851 25.13 24 75.2 15 -4.1 24.6
16:35 1022 30.18 851 25.13 24.4 76 14 -4.5 24
16:40 1022 30.18 851 25.13 24.3 75.8 14 -4.5 23.8
16:45 1022 30.18 851 25.13 23.3 73.9 15 -4.6 23.6
16:50 1022 30.18 851 25.13 22.7 72.9 16 -3.9 25
16:55 1022 30.18 851 25.13 23 73.4 16 -4.4 24.1
17:00 1022 30.18 851 25.13 22.9 73.3 15 -5 23.1
17:05 1022 30.18 851 25.13 22.7 72.9 15 -5 23.1
17:10 1022 30.18 851 25.13 22.9 73.2 17 -3.6 25.6
17:15 1022 30.18 851 25.13 23.1 73.6 17 -3 26.7
17:20 1022 30.18 851 25.13 22.8 73.1 16 -4.4 24.1
17:25 1022 30.18 851 25.13 22.6 72.6 17 -3.1 26.3
17:30 1022 30.18 851 25.13 22.5 72.4 19 -2.3 27.9
17:35 1022 30.18 851 25.13 22.4 72.2 18 -2.9 26.9
17:40 1022 30.18 851 25.13 22.2 71.9 19 -2.5 27.6
17:45 1022 30.18 851 25.13 22 71.6 20 -2 28.3
17:50 1022 30.18 851 25.13 21.9 71.3 20 -2.2 28
17:55 1021 30.15 851 25.13 21.8 71.2 21 -1.6 29.2
18:00 1021 30.15 851 25.13 21.7 71 21 -1.5 29.2
18:05 1021 30.15 851 25.13 21.5 70.7 23 -0.5 31.2
18:10 1021 30.15 851 25.13 21.4 70.5 22 -1.1 30
18:15 1021 30.15 851 25.13 21.3 70.3 22 -1.3 29.6
18:20 1021 30.15 851 25.13 21.2 70.1 23 -0.5 31.1
18:25 1021 30.15 851 25.13 21 69.9 23 -0.9 30.5
18:30 1021 30.15 851 25.13 20.8 69.5 22 -1.2 29.8
18:35 1021 30.15 850 25.1 20.6 69.1 25 -0.2 31.6
18:40 1021 30.15 850 25.1 20.5 68.8 25 -0.1 31.8
18:45 1021 30.15 850 25.1 20.3 68.5 28 1.5 34.6
18:50 1021 30.15 850 25.1 19.8 67.7 35 3.9 39
18:55 1021 30.15 850 25.1 18.7 65.7 36 3.3 37.9
19:00 1021 30.15 850 25.1 18.1 64.5 38 3.7 38.7
19:05 1021 30.15 850 25.1 17.2 63 39 3.4 38.1
19:10 1021 30.15 850 25.1 16.5 61.7 41 3.4 38.2
19:15 1021 30.15 850 25.1 16 60.7 43 3.5 38.2
19:20 1021 30.15 850 25.1 15.5 59.9 44 3.5 38.3
19:25 1021 30.15 850 25.1 15.4 59.7 44 3.2 37.8
19:30 1021 30.15 850 25.1 15 59.1 45 3.4 38.2
19:35 1021 30.15 850 25.1 14.5 58.1 50 4.4 39.9
19:40 1021 30.15 850 25.1 14 57.2 46 2.6 36.8
19:45 1021 30.15 850 25.1 14 57.3 47 2.9 37.3
19:50 1021 30.15 850 25.1 13.9 57 44 2 35.7
19:55 1021 30.15 850 25.1 13.8 56.9 42 1.1 33.9
20:00 1021 30.15 850 25.1 13.9 57 40 0.7 33.3
20:05 1021 30.15 850 25.1 13.8 56.9 40 0.6 33.1
20:10 1021 30.15 850 25.1 13.8 56.9 38 -0 32
20:15 1021 30.15 850 25.1 13.9 57 38 -0.1 31.9
20:20 1021 30.15 850 25.1 14 57.2 38 0.1 32.2
20:25 1021 30.15 850 25.1 13.7 56.6 38 -0.2 31.7
20:30 1021 30.15 850 25.1 13.5 56.3 40 0.1 32.3
20:35 1021 30.15 850 25.1 13.2 55.8 40 0.1 32.1
20:40 1021 30.15 850 25.1 13.2 55.7 40 -0.1 31.9
20:45 1021 30.15 850 25.1 13 55.3 40 -0.3 31.5
20:50 1021 30.15 850 25.1 13 55.3 39 -0.7 30.8
20:55 1021 30.15 850 25.1 13.3 56 37 -0.9 30.4
21:00 1021 30.15 850 25.1 13.6 56.5 36 -1.2 29.8
21:05 1021 30.15 850 25.1 13.6 56.5 36 -1 30.2
21:10 1021 30.15 850 25.1 13.4 56 35 -1.7 29
21:15 1021 30.15 850 25.1 13.8 56.9 32 -2.3 27.8
21:20 1021 30.15 850 25.1 14.3 57.7 32 -2 28.4
21:25 1021 30.15 850 25.1 14.8 58.6 33 -1.4 29.5
21:30 1021 30.15 850 25.1 14.8 58.6 33 -1.3 29.6
21:35 1021 30.15 850 25.1 14.8 58.6 33 -1.2 29.9
21:40 1021 30.15 850 25.1 14.5 58.1 33 -1.7 29
21:45 1021 30.15 850 25.1 14.6 58.2 33 -1.5 29.2
21:50 1021 30.15 850 25.1 14.3 57.7 33 -1.5 29.3
21:55 1021 30.15 850 25.1 14.1 57.4 34 -1.5 29.4
22:00 1021 30.15 850 25.1 13.8 56.9 33 -1.9 28.5
22:05 1021 30.15 850 25.1 13.8 56.9 33 -2 28.4
22:10 1021 30.15 850 25.1 14.2 57.6 32 -2.3 27.9
22:15 1021 30.15 850 25.1 14.3 57.7 37 -0.2 31.7
22:20 1021 30.15 850 25.1 12.8 55 44 0.7 33.3
22:25 1021 30.15 850 25.1 12.2 53.9 44 0.2 32.4
22:30 1021 30.15 850 25.1 12.4 54.3 43 0.2 32.4
22:35 1021 30.15 850 25.1 12.4 54.4 42 -0.1 31.9
22:40 1021 30.15 850 25.1 13.1 55.6 36 -1.4 29.5
22:45 1021 30.15 850 25.1 13.7 56.6 37 -0.6 31
22:50 1021 30.15 850 25.1 13.3 56 39 -0.2 31.6
22:55 1021 30.15 850 25.1 12.5 54.4 44 0.6 33.1
23:00 1021 30.15 850 25.1 11.7 53 45 0.2 32.4
23:05 1020 30.12 850 25.1 11.5 52.8 45 0.2 32.3
23:10 1021 30.15 850 25.1 11.4 52.5 46 0.2 32.4
23:15 1021 30.15 850 25.1 11.4 52.5 44 -0.3 31.5
23:20 1021 30.15 850 25.1 11.8 53.2 40 -1.3 29.7
23:25 1021 30.15 850 25.1 12 53.6 44 0.1 32.1
23:30 1021 30.15 850 25.1 11.7 53 43 -0.3 31.5
23:35 1021 30.15 850 25.1 11.5 52.8 46 0.4 32.7
23:40 1021 30.15 850 25.1 11 51.8 46 -0 32
23:45 1020 30.12 850 25.1 11.3 52.3 44 -0.3 31.4
23:50 1020 30.12 850 25.1 11.5 52.7 44 -0.3 31.5
23:55 1020 30.12 850 25.1 11.8 53.2 43 -0.5 31.1
24:00 1020 30.12 850 25.1 11.7 53.1 43 -0.5 31.1